Leonard, Texas
Current Conditions -  °F | °C
As of 12:53 AM on Sunday 26 Oct 2014 (Local Time) from KTKI Reporting Station
Clear Clear  
Wind Chill: 65°   Ceiling: Unl
Heat Index: 65°   Visibility: 10mi
Dew Point: 61°   Wind: 6mph
Humidity: 87%   Direction: 170°S
Pressure: 30.03"   Gusts: NA
Location:  33.38°N, 96.25°W
Report Text: KTKI 260553Z AUTO 17005KT 10SM CLR 18/16 A3003 RMK AO2 SLP166 T01830161 10256 20178 403060156 58008
Loading
Personal Weather Stations






























Interactive Weather Map
Tropical Storm Tracking
New forecast layout! Learn more

10-Day Weather Forecast

Advertisements
Track Severe Weather on mobile